createdAt,value
2019-02-19T00:01:18.977Z,166.10
2019-02-19T00:03:48.357Z,164.63
2019-02-19T00:06:17.715Z,160.63
2019-02-19T00:08:46.913Z,173.27
2019-02-19T00:11:16.224Z,159.60
2019-02-19T00:13:45.606Z,169.67
2019-02-19T00:16:15.010Z,168.13
2019-02-19T00:18:44.309Z,154.93
2019-02-19T00:21:13.632Z,163.33
2019-02-19T00:23:43.022Z,156.90
2019-02-19T00:26:14.210Z,162.27
2019-02-19T00:28:43.554Z,165.87
2019-02-19T00:31:13.002Z,171.87
2019-02-19T00:33:42.402Z,165.93
2019-02-19T00:36:11.854Z,161.63
2019-02-19T00:38:41.236Z,163.40
2019-02-19T00:41:10.565Z,158.90
2019-02-19T00:43:40.007Z,165.43
2019-02-19T00:46:09.551Z,155.67
2019-02-19T00:48:38.879Z,153.37
2019-02-19T00:51:08.254Z,148.53
2019-02-19T00:53:37.604Z,154.27
2019-02-19T00:56:07.032Z,167.93
2019-02-19T00:58:36.376Z,159.77
2019-02-19T01:01:05.709Z,156.57
2019-02-19T01:03:35.046Z,169.33
2019-02-19T01:06:04.441Z,179.70
2019-02-19T01:08:34.804Z,175.00
2019-02-19T01:11:04.195Z,170.03
2019-02-19T01:13:33.548Z,169.33
2019-02-19T01:16:02.892Z,164.70
2019-02-19T01:18:32.294Z,166.30
2019-02-19T01:21:01.630Z,161.60
2019-02-19T01:23:31.024Z,155.27
2019-02-19T01:26:00.437Z,153.77
2019-02-19T01:28:29.808Z,146.87
2019-02-19T01:31:00.037Z,150.30
2019-02-19T01:33:29.399Z,152.10
2019-02-19T01:35:58.715Z,151.00
2019-02-19T01:38:28.163Z,151.73
2019-02-19T01:40:57.523Z,143.60
2019-02-19T01:43:26.878Z,150.13
2019-02-19T01:45:56.219Z,141.13
2019-02-19T01:48:25.627Z,133.43
2019-02-19T01:50:54.895Z,148.53
2019-02-19T01:53:24.265Z,129.60
2019-02-19T01:55:53.673Z,134.27
2019-02-19T01:58:22.980Z,134.33
2019-02-19T02:00:52.407Z,134.67
2019-02-19T02:03:21.826Z,136.73
2019-02-19T02:05:51.153Z,137.63
2019-02-19T02:08:20.540Z,138.50
2019-02-19T02:10:49.919Z,139.57
2019-02-19T02:13:19.265Z,138.70
2019-02-19T02:15:48.670Z,144.03
2019-02-19T02:18:18.008Z,128.00
2019-02-19T02:20:47.407Z,133.00
2019-02-19T02:23:16.768Z,134.50
2019-02-19T02:25:46.172Z,135.03
2019-02-19T02:28:15.486Z,141.23
2019-02-19T02:30:44.896Z,137.63
2019-02-19T02:33:14.307Z,141.60
2019-02-19T02:35:44.771Z,138.20
2019-02-19T02:38:14.155Z,140.50
2019-02-19T02:40:43.603Z,137.47
2019-02-19T02:43:12.961Z,136.77
2019-02-19T02:45:42.303Z,140.77
2019-02-19T02:48:11.675Z,139.83
2019-02-19T02:50:41.057Z,139.83
2019-02-19T02:53:10.442Z,141.33
2019-02-19T02:55:39.845Z,135.37
2019-02-19T02:58:09.126Z,141.50
2019-02-19T03:00:38.466Z,140.37
2019-02-19T03:03:07.855Z,135.07
2019-02-19T03:05:39.770Z,133.57
2019-02-19T03:08:09.282Z,131.10
2019-02-19T03:10:38.584Z,121.90
2019-02-19T03:13:07.975Z,116.97
2019-02-19T03:15:37.362Z,128.00
2019-02-19T03:18:06.711Z,113.00
2019-02-19T03:20:36.071Z,114.70
2019-02-19T03:23:05.447Z,106.23
2019-02-19T03:25:34.844Z,108.03
2019-02-19T03:28:04.222Z,115.80
2019-02-19T03:30:33.646Z,110.23
2019-02-19T03:33:03.215Z,110.43
2019-02-19T03:35:32.574Z,111.97
2019-02-19T03:38:02.012Z,105.77
2019-02-19T03:40:31.410Z,106.77
2019-02-19T03:43:00.916Z,109.43
2019-02-19T03:45:30.227Z,106.90
2019-02-19T03:47:59.532Z,117.60
2019-02-19T03:50:28.953Z,115.77
2019-02-19T03:52:58.375Z,113.30
2019-02-19T03:55:28.257Z,112.47
2019-02-19T03:57:57.665Z,126.77
2019-02-19T04:00:27.064Z,118.27
2019-02-19T04:02:56.547Z,112.00
2019-02-19T04:05:25.946Z,110.90
2019-02-19T04:07:55.331Z,108.10
2019-02-19T04:10:24.725Z,110.93
2019-02-19T04:12:54.032Z,110.40
2019-02-19T04:15:23.411Z,104.03
2019-02-19T04:17:52.802Z,112.27
2019-02-19T04:20:25.257Z,115.50
2019-02-19T04:22:54.676Z,121.07
2019-02-19T04:25:23.976Z,108.37
2019-02-19T04:28:19.821Z,106.47
2019-02-19T04:30:49.326Z,107.47
2019-02-19T04:33:18.670Z,108.33
2019-02-19T04:35:48.003Z,107.27
2019-02-19T04:38:17.381Z,109.57
2019-02-19T04:40:46.838Z,97.13
2019-02-19T04:43:16.159Z,94.90
2019-02-19T04:45:45.483Z,97.63
2019-02-19T04:48:14.876Z,96.90
2019-02-19T04:50:44.303Z,91.17
2019-02-19T04:53:13.658Z,93.30
2019-02-19T04:55:42.997Z,90.30
2019-02-19T04:58:12.422Z,95.73
2019-02-19T05:00:41.868Z,88.33
2019-02-19T05:03:11.261Z,97.37
2019-02-19T05:05:40.647Z,94.60
2019-02-19T05:08:10.069Z,98.43
2019-02-19T05:10:40.060Z,99.37
2019-02-19T05:13:09.524Z,96.67
2019-02-19T05:15:38.815Z,97.77
2019-02-19T05:18:08.176Z,109.27
2019-02-19T05:20:37.563Z,110.47
2019-02-19T05:23:07.539Z,105.43
2019-02-19T05:25:36.864Z,102.07
2019-02-19T05:28:06.198Z,108.03
2019-02-19T05:30:35.633Z,106.40
2019-02-19T05:33:05.103Z,98.87
2019-02-19T05:35:34.458Z,99.97
2019-02-19T05:38:03.772Z,90.17
2019-02-19T05:40:33.080Z,86.63
2019-02-19T05:43:02.384Z,85.97
2019-02-19T05:45:31.823Z,89.80
2019-02-19T05:48:01.299Z,80.50
2019-02-19T05:50:30.731Z,76.63
2019-02-19T05:53:00.107Z,84.97
2019-02-19T05:55:29.406Z,79.53
2019-02-19T05:57:58.807Z,85.70
2019-02-19T06:00:28.145Z,91.63
2019-02-19T06:02:57.426Z,86.87
2019-02-19T06:05:26.815Z,85.23
2019-02-19T06:07:56.144Z,83.97
2019-02-19T06:10:25.389Z,81.07
2019-02-19T06:12:54.841Z,77.53
2019-02-19T06:15:24.257Z,76.43
2019-02-19T06:17:53.754Z,82.07
2019-02-19T06:20:23.083Z,81.60
2019-02-19T06:22:52.566Z,80.53
2019-02-19T06:25:22.060Z,82.70
2019-02-19T06:27:51.467Z,80.67
2019-02-19T06:30:20.872Z,79.77
2019-02-19T06:32:50.178Z,76.10
2019-02-19T06:35:19.635Z,73.73
2019-02-19T06:37:49.093Z,73.97
2019-02-19T06:40:26.675Z,77.93
2019-02-19T06:42:56.125Z,75.20
2019-02-19T06:45:25.425Z,84.27
2019-02-19T06:47:54.883Z,83.93
2019-02-19T06:50:24.234Z,104.87
2019-02-19T06:52:54.500Z,97.73
2019-02-19T06:55:23.968Z,107.50
2019-02-19T06:57:53.428Z,102.50
2019-02-19T07:00:22.837Z,107.60
2019-02-19T07:06:00.391Z,117.00
2019-02-19T07:08:29.782Z,111.33
2019-02-19T07:10:59.138Z,114.13
2019-02-19T07:13:28.513Z,122.40
2019-02-19T07:15:57.928Z,122.60
2019-02-19T07:18:27.429Z,120.80
2019-02-19T07:20:56.808Z,126.60
2019-02-19T07:23:26.195Z,117.07
2019-02-19T07:25:55.586Z,125.37
2019-02-19T07:28:24.946Z,134.90
2019-02-19T07:30:54.336Z,126.50
2019-02-19T07:33:23.673Z,133.73
2019-02-19T07:35:53.052Z,131.53
2019-02-19T07:38:22.445Z,131.93
2019-02-19T07:40:51.672Z,135.93
2019-02-19T07:43:21.122Z,137.50
2019-02-19T07:45:52.245Z,128.63
2019-02-19T07:48:21.698Z,126.43
2019-02-19T07:50:51.096Z,129.33
2019-02-19T07:53:20.404Z,126.07
2019-02-19T07:55:49.806Z,127.20
2019-02-19T07:59:25.515Z,134.70
2019-02-19T08:01:55.017Z,133.27
2019-02-19T08:04:24.553Z,131.33
2019-02-19T08:06:54.103Z,120.33
2019-02-19T08:09:23.569Z,129.43
2019-02-19T08:11:53.206Z,126.00
2019-02-19T08:14:22.626Z,120.10
2019-02-19T08:16:52.182Z,127.53
2019-02-19T08:19:21.755Z,123.70
2019-02-19T08:21:51.260Z,120.53
2019-02-19T08:24:20.721Z,121.40
2019-02-19T08:26:50.380Z,113.00
2019-02-19T08:29:19.911Z,109.07
2019-02-19T08:31:49.667Z,104.53
2019-02-19T08:34:19.095Z,102.93
2019-02-19T08:36:48.565Z,103.57
2019-02-19T08:39:17.992Z,96.70
2019-02-19T08:41:47.385Z,99.90
2019-02-19T08:44:16.710Z,99.77
2019-02-19T08:46:48.163Z,94.97
2019-02-19T08:49:17.794Z,88.57
2019-02-19T08:51:55.734Z,84.93
2019-02-19T08:54:18.412Z,90.60
2019-02-19T08:56:48.021Z,88.27
2019-02-19T08:59:17.604Z,92.20
2019-02-19T09:01:47.014Z,101.10
2019-02-19T09:04:16.564Z,95.50
2019-02-19T09:06:47.316Z,103.83
2019-02-19T09:09:16.615Z,108.17
2019-02-19T09:11:46.095Z,110.53
2019-02-19T09:14:15.512Z,108.03
2019-02-19T09:16:45.031Z,102.63
2019-02-19T09:19:14.351Z,94.53
2019-02-19T09:21:43.732Z,91.93
2019-02-19T09:24:13.181Z,92.37
2019-02-19T09:26:42.582Z,82.67
2019-02-19T09:29:12.061Z,82.90
2019-02-19T09:31:41.511Z,81.40
2019-02-19T09:34:11.037Z,77.07
2019-02-19T09:36:40.661Z,70.93
2019-02-19T09:39:10.098Z,81.33
2019-02-19T09:41:39.494Z,73.57
2019-02-19T09:44:08.991Z,75.23
2019-02-19T09:46:38.515Z,74.77
2019-02-19T09:49:08.147Z,75.27
2019-02-19T09:51:37.924Z,79.53
2019-02-19T09:54:07.423Z,72.27
2019-02-19T09:56:36.983Z,74.40
2019-02-19T09:59:06.492Z,72.93
2019-02-19T10:01:36.243Z,77.03
2019-02-19T10:04:05.796Z,81.93
2019-02-19T10:06:35.650Z,74.53
2019-02-19T10:09:06.513Z,75.97
2019-02-19T10:11:35.858Z,77.30
2019-02-19T10:14:05.300Z,77.23
2019-02-19T10:16:41.358Z,80.07
2019-02-19T10:19:05.828Z,82.60
2019-02-19T10:21:35.191Z,78.13
2019-02-19T10:24:04.605Z,77.93
2019-02-19T10:26:33.890Z,77.27
2019-02-19T10:29:03.656Z,78.30
2019-02-19T10:31:33.005Z,74.40
2019-02-19T10:34:02.406Z,72.90
2019-02-19T10:36:31.791Z,74.33
2019-02-19T10:39:01.244Z,71.13
2019-02-19T10:41:30.582Z,69.90
2019-02-19T10:44:00.207Z,71.27
2019-02-19T10:46:29.844Z,61.57
2019-02-19T10:48:59.487Z,65.83
2019-02-19T10:51:29.073Z,64.53
2019-02-19T10:53:58.854Z,61.70
2019-02-19T10:56:29.469Z,61.57
2019-02-19T10:59:01.032Z,57.97
2019-02-19T11:01:30.935Z,64.27
2019-02-19T11:04:00.391Z,60.97
2019-02-19T11:06:29.836Z,61.17
2019-02-19T11:08:59.343Z,60.30
2019-02-19T11:11:29.655Z,60.87
2019-02-19T11:13:59.325Z,67.37
2019-02-19T11:16:29.645Z,60.13
2019-02-19T11:19:02.045Z,61.77
2019-02-19T11:21:31.641Z,60.20
2019-02-19T11:24:01.293Z,60.67
2019-02-19T11:26:30.844Z,60.80
2019-02-19T11:29:00.599Z,61.00
2019-02-19T11:31:29.988Z,58.20
2019-02-19T11:34:00.795Z,59.00
2019-02-19T11:36:30.383Z,59.03
2019-02-19T11:38:59.988Z,59.57
2019-02-19T11:41:31.995Z,52.13
2019-02-19T11:44:01.661Z,63.23
2019-02-19T11:46:31.397Z,54.87
2019-02-19T11:49:01.312Z,54.90
2019-02-19T11:51:31.273Z,54.83
2019-02-19T11:54:01.007Z,39.60
2019-02-19T11:56:30.714Z,35.70
2019-02-19T11:59:00.377Z,33.63
2019-02-19T12:01:29.966Z,40.60
2019-02-19T12:03:59.526Z,38.60
2019-02-19T12:06:29.128Z,37.93
2019-02-19T12:08:58.645Z,42.10
2019-02-19T12:11:28.289Z,39.77
2019-02-19T12:13:57.721Z,44.67
2019-02-19T12:16:27.628Z,55.63
2019-02-19T12:18:57.362Z,51.33
2019-02-19T12:21:26.806Z,48.37
2019-02-19T12:23:56.141Z,46.40
2019-02-19T12:26:25.455Z,46.97
2019-02-19T12:28:54.819Z,49.20
2019-02-19T12:31:24.453Z,45.53
2019-02-19T12:33:54.832Z,43.33
2019-02-19T12:36:24.148Z,43.83
2019-02-19T12:38:53.598Z,42.47
2019-02-19T12:41:23.006Z,42.57
2019-02-19T12:43:52.560Z,42.47
2019-02-19T12:46:22.094Z,42.57
2019-02-19T12:48:54.708Z,42.70
2019-02-19T12:51:26.407Z,40.90
2019-02-19T12:53:53.866Z,39.00
2019-02-19T12:59:09.665Z,34.97
2019-02-19T13:01:39.168Z,36.00
2019-02-19T13:04:08.702Z,33.00
2019-02-19T13:06:38.110Z,29.93
2019-02-19T13:09:08.357Z,34.20
2019-02-19T13:11:37.769Z,27.40
2019-02-19T13:14:07.260Z,28.67
2019-02-19T13:16:36.699Z,31.13
2019-02-19T13:19:06.288Z,29.63
2019-02-19T13:21:35.707Z,25.33
2019-02-19T13:24:05.266Z,27.37
2019-02-19T13:26:35.352Z,26.23
2019-02-19T13:29:04.941Z,29.90
2019-02-19T13:31:34.685Z,27.00
2019-02-19T13:34:04.375Z,29.93
2019-02-19T13:36:33.799Z,27.43
2019-02-19T13:39:04.803Z,27.20
2019-02-19T13:41:37.047Z,30.60
2019-02-19T13:44:06.597Z,28.93
2019-02-19T13:46:35.991Z,29.63
2019-02-19T13:49:12.019Z,30.63
2019-02-19T13:51:36.531Z,28.47
2019-02-19T13:54:19.691Z,30.43
2019-02-19T13:56:49.051Z,29.00
2019-02-19T13:59:18.597Z,29.47
2019-02-19T14:01:48.143Z,26.43
2019-02-19T14:04:17.535Z,28.47
2019-02-19T14:06:47.216Z,32.50
2019-02-19T14:09:16.925Z,34.83
2019-02-19T14:11:46.441Z,33.27
2019-02-19T14:14:31.203Z,36.60
2019-02-19T14:17:03.921Z,34.93
2019-02-19T14:19:45.130Z,32.77
2019-02-19T14:22:45.960Z,36.57
2019-02-19T14:25:37.382Z,31.47
2019-02-19T14:28:24.784Z,31.17
2019-02-19T14:31:12.147Z,28.87
2019-02-19T14:33:59.226Z,31.50
2019-02-19T14:36:47.573Z,27.70
2019-02-19T14:39:34.418Z,29.23
2019-02-19T14:42:21.617Z,28.93
2019-02-19T14:45:12.638Z,30.83
2019-02-19T14:47:53.728Z,29.07
2019-02-19T14:50:57.315Z,29.50
2019-02-19T14:54:03.855Z,30.03
2019-02-19T14:56:50.499Z,35.23
2019-02-19T14:59:37.930Z,35.30
2019-02-19T15:02:24.818Z,28.90
2019-02-19T15:05:13.198Z,30.83
2019-02-19T15:08:01.807Z,34.70
2019-02-19T15:10:46.106Z,31.33
2019-02-19T15:13:33.215Z,34.90
2019-02-19T15:16:24.517Z,33.77
2019-02-19T15:19:05.586Z,32.10
2019-02-19T15:21:52.788Z,35.73
2019-02-19T15:24:47.886Z,31.90
2019-02-19T15:27:39.311Z,32.57
2019-02-19T15:30:36.771Z,37.93
2019-02-19T15:33:25.375Z,37.17
2019-02-19T15:36:12.106Z,39.70
2019-02-19T15:39:03.559Z,35.27
2019-02-19T15:42:01.189Z,40.77
2019-02-19T15:45:05.256Z,41.60
2019-02-19T15:47:52.278Z,44.37
2019-02-19T15:50:39.554Z,42.10
2019-02-19T15:53:21.771Z,46.47
2019-02-19T15:56:25.215Z,49.10
2019-02-19T15:59:16.329Z,38.10
2019-02-19T16:02:04.726Z,40.07
2019-02-19T16:04:38.547Z,38.80
2019-02-19T16:07:27.479Z,42.67
2019-02-19T16:10:18.607Z,41.67
2019-02-19T16:13:01.603Z,45.97
2019-02-19T16:15:53.065Z,47.87
2019-02-19T16:18:44.449Z,47.77
2019-02-19T16:21:38.623Z,44.20
2019-02-19T16:24:25.940Z,46.67
2019-02-19T16:27:05.370Z,46.47
2019-02-19T16:29:57.214Z,46.93
2019-02-19T16:32:45.695Z,45.50
2019-02-19T16:35:29.298Z,46.23
2019-02-19T16:38:16.671Z,50.23
2019-02-19T16:41:01.092Z,56.47
2019-02-19T16:43:52.612Z,59.50
2019-02-19T16:46:44.045Z,66.40
2019-02-19T16:49:32.411Z,60.43
2019-02-19T16:52:23.905Z,64.47
2019-02-19T16:55:01.433Z,67.10
2019-02-19T16:57:54.581Z,66.90
2019-02-19T17:00:35.694Z,68.37
2019-02-19T17:03:40.273Z,67.23
2019-02-19T17:06:28.612Z,64.03
2019-02-19T17:09:20.181Z,67.93
2019-02-19T17:11:55.731Z,64.03
2019-02-19T17:14:36.165Z,63.10
2019-02-19T17:17:33.616Z,63.43
2019-02-19T17:20:29.518Z,64.37
2019-02-19T17:23:06.997Z,70.73
2019-02-19T17:25:55.475Z,61.90
2019-02-19T17:28:49.574Z,69.60
2019-02-19T17:31:25.258Z,66.87
2019-02-19T17:34:16.720Z,69.67
2019-02-19T17:37:08.159Z,67.60
2019-02-19T17:39:42.491Z,74.00
2019-02-19T17:42:37.184Z,75.97
2019-02-19T17:45:28.644Z,67.17
2019-02-19T17:48:24.969Z,77.00
2019-02-19T17:51:12.018Z,79.43
2019-02-19T17:54:00.136Z,72.60
2019-02-19T17:56:48.960Z,67.47
2019-02-19T17:59:43.951Z,71.53
2019-02-19T18:02:32.387Z,72.73
2019-02-19T18:05:29.073Z,65.33
2019-02-19T18:08:16.452Z,74.03
2019-02-19T18:11:03.051Z,75.50
2019-02-19T18:13:47.184Z,72.40
2019-02-19T18:16:44.638Z,74.57
2019-02-19T18:19:14.023Z,78.90
2019-02-19T18:21:43.451Z,74.67
2019-02-19T18:24:12.876Z,75.63
2019-02-19T18:26:42.304Z,76.30
2019-02-19T18:29:11.805Z,74.33
2019-02-19T18:31:41.487Z,75.43
2019-02-19T18:34:10.948Z,74.10
2019-02-19T18:36:40.639Z,72.43
2019-02-19T18:39:10.367Z,72.70
2019-02-19T18:41:39.741Z,79.90
2019-02-19T18:44:09.237Z,85.50
2019-02-19T18:46:38.682Z,84.50
2019-02-19T18:49:08.088Z,95.50
2019-02-19T18:51:37.705Z,95.33
2019-02-19T18:54:07.219Z,89.43
2019-02-19T18:56:36.638Z,94.30
2019-02-19T18:59:06.203Z,96.13
2019-02-19T19:01:35.518Z,92.30
2019-02-19T19:04:04.960Z,93.27
2019-02-19T19:06:34.357Z,90.67
2019-02-19T19:09:05.221Z,86.67
2019-02-19T19:11:34.661Z,88.77
2019-02-19T19:14:07.355Z,87.77
2019-02-19T19:16:43.015Z,87.97
2019-02-19T19:19:12.504Z,91.73
2019-02-19T19:21:41.960Z,103.80
2019-02-19T19:24:11.400Z,136.07
2019-02-19T19:26:41.041Z,134.27
2019-02-19T19:29:10.555Z,128.80
2019-02-19T19:31:40.821Z,134.57
2019-02-19T19:34:10.398Z,134.77
2019-02-19T19:36:40.039Z,125.70
2019-02-19T19:39:09.824Z,124.77
2019-02-19T19:41:39.601Z,119.47
2019-02-19T19:44:09.301Z,114.63
2019-02-19T19:46:39.022Z,110.50
2019-02-19T19:49:08.651Z,108.27
2019-02-19T19:51:38.343Z,107.57
2019-02-19T19:54:07.893Z,113.33
2019-02-19T19:56:37.586Z,110.90
2019-02-19T19:59:07.334Z,110.17
2019-02-19T20:01:37.385Z,112.03
2019-02-19T20:04:07.389Z,112.13
2019-02-19T20:06:40.055Z,119.40
2019-02-19T20:09:10.491Z,124.47
2019-02-19T20:11:40.959Z,119.37
2019-02-19T20:14:11.005Z,118.00
2019-02-19T20:16:41.074Z,118.03
2019-02-19T20:19:11.394Z,120.33
2019-02-19T20:21:41.566Z,119.50
2019-02-19T20:24:11.524Z,115.60
2019-02-19T20:26:41.681Z,110.97
2019-02-19T20:29:11.613Z,117.37
2019-02-19T20:31:42.036Z,116.10
2019-02-19T20:34:11.924Z,119.63
2019-02-19T20:36:41.643Z,111.83
2019-02-19T20:39:11.569Z,122.17
2019-02-19T20:41:41.847Z,116.40
2019-02-19T20:44:12.060Z,117.90
2019-02-19T20:46:42.135Z,126.43
2019-02-19T20:49:11.525Z,128.63
2019-02-19T20:51:41.042Z,130.83
2019-02-19T20:54:10.492Z,131.87
2019-02-19T20:56:39.946Z,126.70
2019-02-19T20:59:09.242Z,128.00
2019-02-19T21:01:39.025Z,127.93
2019-02-19T21:04:08.548Z,131.77
2019-02-19T21:06:38.981Z,133.13
2019-02-19T21:09:09.264Z,129.70
2019-02-19T21:11:38.659Z,132.87
2019-02-19T21:14:08.157Z,138.47
2019-02-19T21:16:37.625Z,138.77
2019-02-19T21:19:07.162Z,137.03
2019-02-19T21:21:44.802Z,143.60
2019-02-19T21:24:08.727Z,147.63
2019-02-19T21:26:38.161Z,142.60
2019-02-19T21:29:07.655Z,149.20
2019-02-19T21:31:37.465Z,142.03
2019-02-19T21:34:07.363Z,137.73
2019-02-19T21:36:36.686Z,130.83
2019-02-19T21:39:06.779Z,134.87
2019-02-19T21:41:36.382Z,136.83
2019-02-19T21:44:05.767Z,134.57
2019-02-19T21:46:35.279Z,128.00
2019-02-19T21:49:04.986Z,132.40
2019-02-19T21:51:34.653Z,131.20
2019-02-19T21:54:04.052Z,130.20
2019-02-19T21:56:33.635Z,133.80
2019-02-19T21:59:03.156Z,127.60
2019-02-19T22:01:32.737Z,110.80
2019-02-19T22:04:02.289Z,106.17
2019-02-19T22:06:31.909Z,89.83
2019-02-19T22:09:01.413Z,76.47
2019-02-19T22:11:30.815Z,66.97
2019-02-19T22:14:00.214Z,59.27
2019-02-19T22:16:29.735Z,52.50
2019-02-19T22:18:59.382Z,39.73
2019-02-19T22:21:40.112Z,37.47
2019-02-19T22:24:09.754Z,40.03
2019-02-19T22:26:39.257Z,34.40
2019-02-19T22:29:08.762Z,33.20
2019-02-19T22:31:38.952Z,35.70
2019-02-19T22:34:08.899Z,34.83
2019-02-19T22:36:38.717Z,35.60
2019-02-19T22:39:08.886Z,32.70
2019-02-19T22:41:38.582Z,33.60
2019-02-19T22:44:08.081Z,35.53
2019-02-19T22:46:37.446Z,32.27
2019-02-19T22:49:06.704Z,37.83
2019-02-19T22:51:36.085Z,34.17
2019-02-19T22:54:10.315Z,37.07
2019-02-19T22:56:42.948Z,37.20
2019-02-19T22:59:12.501Z,38.20
2019-02-19T23:01:46.470Z,41.23
2019-02-19T23:04:16.279Z,40.83
2019-02-19T23:06:46.242Z,43.60
2019-02-19T23:09:15.697Z,43.60
2019-02-19T23:11:45.359Z,43.77
2019-02-19T23:14:14.651Z,49.20
2019-02-19T23:16:44.161Z,54.93
2019-02-19T23:19:13.612Z,49.70
2019-02-19T23:21:42.920Z,50.43
2019-02-19T23:24:12.633Z,51.47
2019-02-19T23:26:42.142Z,58.03
2019-02-19T23:29:11.521Z,58.97
2019-02-19T23:31:40.887Z,59.87
2019-02-19T23:34:10.320Z,56.03
2019-02-19T23:36:51.947Z,57.17
2019-02-19T23:39:21.298Z,55.90
2019-02-19T23:41:50.683Z,55.87
2019-02-19T23:44:19.985Z,56.40
2019-02-19T23:46:49.250Z,57.77
2019-02-19T23:49:18.521Z,57.63
2019-02-19T23:51:48.007Z,58.80
2019-02-19T23:54:17.395Z,59.87
2019-02-19T23:56:46.769Z,60.57
2019-02-19T23:59:16.214Z,59.50
